createdAt,value
2019-04-14T00:00:27.260Z,3.30
2019-04-14T00:02:57.731Z,3.24
2019-04-14T00:05:26.130Z,3.19
2019-04-14T00:07:54.416Z,3.20
2019-04-14T00:10:22.965Z,3.21
2019-04-14T00:12:51.499Z,3.26
2019-04-14T00:15:29.200Z,3.36
2019-04-14T00:17:50.386Z,3.35
2019-04-14T00:20:18.758Z,3.34
2019-04-14T00:22:47.049Z,3.31
2019-04-14T00:25:15.361Z,3.30
2019-04-14T00:27:45.263Z,3.29
2019-04-14T00:30:14.473Z,3.28
2019-04-14T00:32:44.655Z,3.24
2019-04-14T00:35:15.230Z,3.28
2019-04-14T00:37:45.208Z,3.25
2019-04-14T00:40:17.897Z,3.23
2019-04-14T00:42:58.082Z,3.18
2019-04-14T00:45:39.391Z,3.19
2019-04-14T00:48:07.905Z,3.11
2019-04-14T00:50:32.718Z,3.14
2019-04-14T00:53:01.265Z,3.16
2019-04-14T00:55:29.619Z,3.17
2019-04-14T00:57:57.935Z,3.15
2019-04-14T01:00:26.227Z,3.14
2019-04-14T01:02:55.756Z,3.09
2019-04-14T01:05:24.184Z,2.97
2019-04-14T01:07:52.773Z,2.91
2019-04-14T01:10:21.395Z,2.88
2019-04-14T01:12:49.709Z,2.85
2019-04-14T01:15:18.069Z,2.87
2019-04-14T01:17:46.378Z,2.88
2019-04-14T01:20:14.760Z,2.88
2019-04-14T01:22:43.072Z,2.92
2019-04-14T01:25:12.761Z,2.96
2019-04-14T01:27:41.144Z,2.95
2019-04-14T01:30:09.681Z,3.00
2019-04-14T01:32:39.372Z,3.00
2019-04-14T01:35:09.631Z,2.99
2019-04-14T01:37:38.055Z,2.97
2019-04-14T01:40:07.575Z,2.97
2019-04-14T01:42:35.917Z,3.03
2019-04-14T01:45:05.785Z,3.08
2019-04-14T01:47:34.124Z,3.10
2019-04-14T01:50:03.469Z,3.06
2019-04-14T01:52:34.113Z,3.05
2019-04-14T01:55:15.903Z,3.06
2019-04-14T01:58:03.230Z,3.08
2019-04-14T02:00:33.738Z,3.08
2019-04-14T02:03:02.055Z,3.14
2019-04-14T02:05:30.343Z,3.19
2019-04-14T02:07:58.677Z,3.27
2019-04-14T02:10:28.066Z,3.35
2019-04-14T02:12:56.654Z,3.30
2019-04-14T02:15:24.944Z,3.27
2019-04-14T02:17:54.510Z,3.26
2019-04-14T02:20:23.013Z,3.27
2019-04-14T02:22:53.049Z,3.24
2019-04-14T02:25:21.425Z,3.15
2019-04-14T02:27:49.747Z,3.13
2019-04-14T02:30:22.980Z,3.10
2019-04-14T02:33:18.120Z,3.07
2019-04-14T02:35:47.337Z,3.01
2019-04-14T02:38:23.421Z,2.98
2019-04-14T02:40:59.717Z,2.98
2019-04-14T02:45:57.502Z,2.92
2019-04-14T02:48:29.097Z,2.94
2019-04-14T02:50:47.766Z,2.97
2019-04-14T02:53:18.089Z,2.90
2019-04-14T02:55:49.128Z,2.87
2019-04-14T02:58:20.357Z,2.81
2019-04-14T03:00:50.901Z,2.84
2019-04-14T03:03:24.141Z,2.88
2019-04-14T03:06:17.874Z,2.87
2019-04-14T03:08:20.341Z,2.90
2019-04-14T03:10:47.504Z,2.88
2019-04-14T03:13:21.342Z,2.88
2019-04-14T03:15:47.896Z,2.91
2019-04-14T03:18:35.571Z,2.91
2019-04-14T03:20:55.034Z,2.88
2019-04-14T03:23:53.438Z,2.88
2019-04-14T03:26:18.014Z,2.87
2019-04-14T03:29:05.414Z,2.81
2019-04-14T03:34:17.956Z,2.78
2019-04-14T03:36:58.224Z,2.73
2019-04-14T03:39:10.155Z,2.71
2019-04-14T03:43:48.463Z,2.57
2019-04-14T03:51:34.056Z,2.62
2019-04-14T03:53:52.015Z,2.59
2019-04-14T03:56:07.114Z,2.52
2019-04-14T03:58:33.510Z,2.41
2019-04-14T04:01:02.003Z,2.33
2019-04-14T04:03:30.419Z,2.31
2019-04-14T04:05:59.015Z,2.31
2019-04-14T04:08:27.327Z,2.32
2019-04-14T04:10:59.870Z,2.39
2019-04-14T04:13:28.199Z,2.41
2019-04-14T04:15:58.393Z,2.36
2019-04-14T04:18:30.995Z,2.35
2019-04-14T04:21:00.983Z,2.25
2019-04-14T04:23:33.912Z,2.21
2019-04-14T04:26:19.810Z,2.27
2019-04-14T04:28:56.259Z,2.23
2019-04-14T04:31:29.168Z,2.21
2019-04-14T04:34:16.233Z,2.24
2019-04-14T04:36:53.042Z,2.21
2019-04-14T04:39:25.883Z,2.19
2019-04-14T04:41:54.174Z,2.18
2019-04-14T04:44:22.535Z,2.19
2019-04-14T04:46:50.813Z,2.22
2019-04-14T04:49:24.068Z,2.21
2019-04-14T04:51:49.158Z,2.15
2019-04-14T04:54:17.447Z,2.16
2019-04-14T04:56:45.761Z,2.10
2019-04-14T04:59:14.868Z,2.11
2019-04-14T05:01:43.534Z,2.18
2019-04-14T05:04:11.835Z,2.27
2019-04-14T05:06:57.609Z,2.29
2019-04-14T05:09:28.169Z,2.34
2019-04-14T05:12:17.438Z,2.42
2019-04-14T05:15:03.587Z,2.50
2019-04-14T05:17:36.693Z,2.58
2019-04-14T05:20:05.664Z,2.68
2019-04-14T05:22:35.310Z,2.79
2019-04-14T05:25:04.185Z,2.90
2019-04-14T05:27:32.607Z,2.98
2019-04-14T05:30:00.897Z,3.10
2019-04-14T05:32:30.431Z,3.23
2019-04-14T05:34:58.903Z,3.33
2019-04-14T05:37:27.204Z,3.38
2019-04-14T05:39:55.505Z,3.39
2019-04-14T05:42:26.750Z,3.46
2019-04-14T05:44:53.861Z,3.45
2019-04-14T05:47:22.426Z,3.34
2019-04-14T05:49:53.443Z,3.26
2019-04-14T05:52:20.796Z,3.26
2019-04-14T05:54:49.311Z,3.27
2019-04-14T05:57:17.709Z,3.36
2019-04-14T05:59:46.239Z,3.47
2019-04-14T06:02:15.786Z,3.42
2019-04-14T06:04:44.277Z,3.41
2019-04-14T06:07:12.614Z,3.42
2019-04-14T06:09:41.217Z,3.39
2019-04-14T06:12:09.650Z,3.45
2019-04-14T06:14:37.946Z,3.54
2019-04-14T06:17:06.255Z,3.67
2019-04-14T06:19:37.976Z,3.71
2019-04-14T06:22:04.702Z,3.75
2019-04-14T06:24:33.002Z,3.77
2019-04-14T06:27:01.619Z,3.78
2019-04-14T06:29:30.008Z,3.87
2019-04-14T06:32:12.324Z,3.78
2019-04-14T06:34:58.746Z,3.79
2019-04-14T06:37:31.545Z,3.84
2019-04-14T06:40:01.492Z,3.78
2019-04-14T06:42:30.072Z,3.75
2019-04-14T06:44:58.373Z,3.85
2019-04-14T06:47:27.041Z,3.96
2019-04-14T06:49:55.627Z,3.93
2019-04-14T06:52:24.208Z,3.86
2019-04-14T06:54:52.542Z,3.91
2019-04-14T06:57:20.835Z,3.87
2019-04-14T06:59:49.155Z,3.95
2019-04-14T07:02:17.470Z,4.02
2019-04-14T07:04:45.796Z,4.14
2019-04-14T07:07:14.096Z,4.30
2019-04-14T07:09:42.759Z,4.35
2019-04-14T07:12:11.449Z,4.33
2019-04-14T07:14:39.838Z,4.19
2019-04-14T07:17:08.128Z,4.23
2019-04-14T07:19:36.460Z,4.19
2019-04-14T07:22:04.738Z,4.24
2019-04-14T07:24:33.338Z,4.35
2019-04-14T07:27:01.651Z,4.36
2019-04-14T07:29:31.586Z,4.37
2019-04-14T07:32:16.384Z,4.51
2019-04-14T07:34:46.332Z,4.65
2019-04-14T07:37:28.260Z,4.89
2019-04-14T07:39:58.528Z,5.02
2019-04-14T07:42:28.471Z,5.17
2019-04-14T07:45:04.154Z,5.26
2019-04-14T07:47:51.849Z,5.07
2019-04-14T07:50:30.869Z,5.10
2019-04-14T07:53:17.359Z,5.25
2019-04-14T07:56:02.315Z,5.39
2019-04-14T07:58:32.245Z,5.34
2019-04-14T08:01:05.076Z,5.34
2019-04-14T08:03:37.939Z,5.28
2019-04-14T08:06:06.267Z,5.32
2019-04-14T08:08:34.578Z,5.34
2019-04-14T08:11:02.905Z,5.28
2019-04-14T08:13:31.201Z,5.21
2019-04-14T08:15:59.524Z,5.41
2019-04-14T08:18:27.816Z,5.63
2019-04-14T08:20:56.118Z,5.60
2019-04-14T08:23:24.439Z,5.64
2019-04-14T08:25:52.731Z,5.80
2019-04-14T08:28:21.541Z,5.90
2019-04-14T08:30:49.886Z,5.89
2019-04-14T08:33:18.236Z,5.99
2019-04-14T08:35:46.520Z,6.03
2019-04-14T08:38:14.842Z,6.02
2019-04-14T08:40:43.496Z,6.02
2019-04-14T08:43:13.690Z,6.03
2019-04-14T08:45:46.083Z,6.03
2019-04-14T08:48:24.733Z,6.14
2019-04-14T08:51:00.373Z,6.26
2019-04-14T08:53:46.464Z,6.14
2019-04-14T08:56:25.607Z,6.08
2019-04-14T08:59:01.258Z,6.25
2019-04-14T09:01:33.671Z,6.31
2019-04-14T09:04:03.631Z,6.45
2019-04-14T09:06:45.852Z,6.49
2019-04-14T09:09:19.017Z,6.59
2019-04-14T09:11:48.953Z,6.69
2019-04-14T09:14:17.278Z,6.70
2019-04-14T09:16:45.565Z,6.74
2019-04-14T09:19:13.862Z,6.80
2019-04-14T09:21:42.169Z,6.90
2019-04-14T09:24:10.478Z,6.99
2019-04-14T09:26:38.826Z,7.02
2019-04-14T09:29:07.476Z,7.18
2019-04-14T09:31:36.041Z,7.08
2019-04-14T09:34:04.346Z,7.07
2019-04-14T09:36:32.682Z,7.21
2019-04-14T09:39:01.276Z,7.36
2019-04-14T09:41:29.610Z,7.45
2019-04-14T09:43:57.905Z,7.50
2019-04-14T09:46:26.518Z,7.48
2019-04-14T09:48:55.058Z,7.63
2019-04-14T09:51:23.386Z,7.65
2019-04-14T09:53:51.674Z,7.71
2019-04-14T09:56:19.987Z,7.81
2019-04-14T09:58:48.612Z,8.03
2019-04-14T10:01:16.914Z,8.00
2019-04-14T10:03:45.490Z,8.08
2019-04-14T10:06:14.029Z,8.31
2019-04-14T10:08:42.352Z,8.32
2019-04-14T10:11:10.662Z,8.15
2019-04-14T10:13:38.971Z,8.14
2019-04-14T10:16:07.594Z,8.12
2019-04-14T10:18:35.948Z,8.32
2019-04-14T10:21:16.489Z,8.27
2019-04-14T10:23:34.293Z,8.30
2019-04-14T10:26:02.590Z,8.40
2019-04-14T10:28:31.216Z,8.60
2019-04-14T10:31:00.085Z,8.60
2019-04-14T10:33:28.344Z,8.59
2019-04-14T10:35:56.645Z,8.53
2019-04-14T10:38:24.953Z,8.33
2019-04-14T10:40:53.269Z,8.55
2019-04-14T10:43:21.992Z,8.76
2019-04-14T10:45:50.315Z,8.61
2019-04-14T10:48:18.678Z,8.47
2019-04-14T10:50:46.994Z,8.61
2019-04-14T10:53:15.553Z,8.82
2019-04-14T10:55:43.866Z,8.83
2019-04-14T10:58:12.170Z,8.90
2019-04-14T11:00:40.479Z,8.76
2019-04-14T11:03:08.773Z,8.64
2019-04-14T11:05:38.760Z,8.60
2019-04-14T11:08:07.141Z,8.64
2019-04-14T11:10:35.713Z,8.62
2019-04-14T11:13:04.042Z,8.72
2019-04-14T11:15:32.368Z,8.89
2019-04-14T11:18:00.930Z,9.09
2019-04-14T11:20:29.250Z,9.13
2019-04-14T11:23:03.580Z,8.88
2019-04-14T11:25:27.598Z,8.96
2019-04-14T11:27:56.424Z,9.17
2019-04-14T11:30:25.016Z,9.29
2019-04-14T11:32:54.975Z,9.33
2019-04-14T11:35:27.406Z,9.36
2019-04-14T11:38:00.565Z,9.40
2019-04-14T11:40:30.498Z,9.55
2019-04-14T11:42:59.162Z,9.64
2019-04-14T11:45:27.550Z,9.57
2019-04-14T11:47:55.857Z,9.44
2019-04-14T11:50:24.187Z,9.33
2019-04-14T11:52:52.513Z,9.27
2019-04-14T11:55:20.819Z,9.35
2019-04-14T11:57:49.106Z,9.67
2019-04-14T12:00:35.619Z,9.85
2019-04-14T12:03:14.854Z,9.99
2019-04-14T12:05:53.767Z,10.05
2019-04-14T12:08:29.452Z,10.10
2019-04-14T12:10:58.116Z,9.94
2019-04-14T12:13:26.430Z,9.76
2019-04-14T12:15:54.739Z,9.58
2019-04-14T12:18:23.038Z,9.55
2019-04-14T12:20:51.375Z,9.51
2019-04-14T12:23:19.681Z,9.64
2019-04-14T12:25:48.293Z,9.78
2019-04-14T12:28:17.339Z,9.93
2019-04-14T12:30:46.852Z,9.99
2019-04-14T12:33:15.249Z,9.91
2019-04-14T12:35:43.564Z,9.89
2019-04-14T12:38:11.951Z,9.97
2019-04-14T12:40:40.329Z,10.17
2019-04-14T12:43:16.063Z,10.33
2019-04-14T12:45:46.015Z,10.39
2019-04-14T12:48:33.961Z,10.35
2019-04-14T12:51:03.898Z,10.34
2019-04-14T12:53:32.228Z,10.10
2019-04-14T12:56:00.522Z,10.02
2019-04-14T12:58:30.479Z,10.24
2019-04-14T13:01:03.228Z,10.43
2019-04-14T13:03:32.320Z,10.22
2019-04-14T13:06:00.959Z,10.17
2019-04-14T13:08:29.270Z,10.22
2019-04-14T13:10:57.564Z,10.22
2019-04-14T13:13:26.192Z,10.29
2019-04-14T13:15:54.527Z,10.17
2019-04-14T13:18:22.805Z,10.08
2019-04-14T13:20:51.445Z,10.10
2019-04-14T13:23:19.747Z,10.25
2019-04-14T13:25:48.142Z,10.28
2019-04-14T13:28:16.781Z,10.31
2019-04-14T13:30:46.761Z,10.33
2019-04-14T13:33:15.070Z,10.35
2019-04-14T13:35:43.435Z,10.27
2019-04-14T13:38:11.679Z,10.30
2019-04-14T13:40:40.418Z,10.08
2019-04-14T13:43:09.087Z,10.10
2019-04-14T13:45:37.381Z,10.25
2019-04-14T13:48:05.713Z,10.20
2019-04-14T13:50:34.019Z,10.06
2019-04-14T13:53:02.388Z,10.02
2019-04-14T13:55:30.986Z,10.01
2019-04-14T13:57:59.567Z,10.09
2019-04-14T14:00:28.137Z,10.17
2019-04-14T14:02:56.455Z,10.06
2019-04-14T14:05:24.765Z,10.06
2019-04-14T14:07:53.134Z,9.96
2019-04-14T14:10:21.597Z,9.96
2019-04-14T14:12:51.817Z,9.84
2019-04-14T14:15:30.249Z,9.98
2019-04-14T14:18:00.197Z,9.94
2019-04-14T14:20:48.216Z,9.94
2019-04-14T14:23:21.248Z,9.93
2019-04-14T14:25:53.719Z,10.08
2019-04-14T14:28:22.042Z,10.19
2019-04-14T14:30:50.397Z,10.18
2019-04-14T14:33:19.058Z,9.88
2019-04-14T14:35:47.358Z,9.92
2019-04-14T14:38:15.685Z,9.96
2019-04-14T14:40:44.015Z,9.96
2019-04-14T14:43:12.323Z,9.98
2019-04-14T14:45:45.602Z,9.88
2019-04-14T14:48:27.763Z,9.89
2019-04-14T14:51:14.119Z,9.86
2019-04-14T14:53:42.765Z,9.90
2019-04-14T14:56:11.341Z,9.90
2019-04-14T14:58:39.657Z,9.85
2019-04-14T15:01:08.697Z,9.93
2019-04-14T15:03:36.986Z,9.99
2019-04-14T15:06:05.548Z,10.04
2019-04-14T15:08:33.852Z,10.09
2019-04-14T15:11:04.193Z,9.92
2019-04-14T15:13:32.211Z,9.85
2019-04-14T15:16:00.535Z,9.83
2019-04-14T15:18:28.820Z,9.78
2019-04-14T15:20:57.731Z,9.74
2019-04-14T15:23:26.035Z,9.74
2019-04-14T15:25:54.640Z,9.75
2019-04-14T15:28:23.106Z,9.80
2019-04-14T15:30:51.436Z,9.78
2019-04-14T15:33:19.740Z,9.68
2019-04-14T15:35:48.287Z,9.62
2019-04-14T15:38:16.653Z,9.54
2019-04-14T15:40:45.004Z,9.45
2019-04-14T15:43:13.597Z,9.43
2019-04-14T15:45:42.177Z,9.29
2019-04-14T15:48:10.491Z,9.21
2019-04-14T15:50:39.142Z,9.20
2019-04-14T15:53:07.450Z,9.17
2019-04-14T15:55:35.953Z,9.20
2019-04-14T15:58:14.625Z,9.19
2019-04-14T16:00:44.554Z,9.17
2019-04-14T16:03:23.176Z,9.17
2019-04-14T16:05:56.161Z,9.17
2019-04-14T16:08:41.249Z,9.06
2019-04-14T16:11:29.196Z,8.99
2019-04-14T16:14:14.452Z,8.97
2019-04-14T16:16:47.063Z,8.89
2019-04-14T16:19:17.025Z,8.80
2019-04-14T16:21:45.334Z,8.84
2019-04-14T16:24:13.634Z,8.89
2019-04-14T16:26:46.777Z,8.95
2019-04-14T16:29:25.367Z,8.94
2019-04-14T16:32:01.018Z,9.01
2019-04-14T16:34:36.647Z,9.04
2019-04-14T16:37:04.983Z,8.95
2019-04-14T16:39:33.266Z,8.95
2019-04-14T16:42:01.571Z,8.89
2019-04-14T16:44:30.188Z,8.88
2019-04-14T16:46:58.784Z,8.75
2019-04-14T16:49:27.150Z,8.76
2019-04-14T16:51:57.108Z,8.71
2019-04-14T16:54:29.723Z,8.61
2019-04-14T16:57:16.148Z,8.47
2019-04-14T16:59:44.438Z,8.48
2019-04-14T17:02:12.842Z,8.50
2019-04-14T17:04:41.159Z,8.47
2019-04-14T17:07:09.449Z,8.46
2019-04-14T17:09:37.757Z,8.49
2019-04-14T17:12:06.964Z,8.48
2019-04-14T17:14:53.350Z,8.42
2019-04-14T17:17:41.080Z,8.40
2019-04-14T17:20:11.088Z,8.35
2019-04-14T17:22:46.932Z,8.38
2019-04-14T17:25:28.887Z,8.31
2019-04-14T17:28:07.855Z,8.26
2019-04-14T17:30:40.239Z,8.24
2019-04-14T17:33:21.878Z,8.21
2019-04-14T17:36:10.482Z,8.22
2019-04-14T17:38:43.090Z,8.23
2019-04-14T17:41:29.600Z,8.21
2019-04-14T17:43:59.884Z,8.19
2019-04-14T17:46:44.950Z,8.19
2019-04-14T17:49:31.419Z,8.12
2019-04-14T17:52:17.695Z,8.09
2019-04-14T17:54:47.637Z,8.01
2019-04-14T17:57:33.996Z,7.96
2019-04-14T18:00:12.717Z,7.95
2019-04-14T18:02:42.665Z,7.88
2019-04-14T18:05:12.664Z,7.85
2019-04-14T18:07:45.608Z,7.78
2019-04-14T18:10:18.352Z,7.66
2019-04-14T18:12:48.618Z,7.65
2019-04-14T18:15:24.777Z,7.63
2019-04-14T18:18:12.539Z,7.60
2019-04-14T18:20:45.493Z,7.58
2019-04-14T18:23:13.803Z,7.57
2019-04-14T18:25:42.099Z,7.60
2019-04-14T18:28:21.145Z,7.57
2019-04-14T18:31:00.340Z,7.47
2019-04-14T18:33:36.217Z,7.40
2019-04-14T18:36:06.178Z,7.39
2019-04-14T18:38:52.089Z,7.40
2019-04-14T18:41:40.543Z,7.38
2019-04-14T18:44:10.836Z,7.37
2019-04-14T18:46:57.265Z,7.32
2019-04-14T18:49:27.587Z,7.31
2019-04-14T18:52:00.479Z,7.30
2019-04-14T18:54:36.162Z,7.32
2019-04-14T18:57:08.767Z,7.30
2019-04-14T18:59:47.589Z,7.25
2019-04-14T19:02:16.755Z,7.21
2019-04-14T19:04:45.422Z,7.21
2019-04-14T19:07:13.804Z,7.12
2019-04-14T19:09:42.193Z,7.01
2019-04-14T19:12:21.167Z,6.97
2019-04-14T19:15:03.540Z,6.92
2019-04-14T19:17:33.458Z,6.91
2019-04-14T19:20:02.625Z,6.90
2019-04-14T19:22:31.280Z,6.88
2019-04-14T19:25:07.978Z,6.84
2019-04-14T19:27:29.606Z,6.83
2019-04-14T19:29:57.901Z,6.83
2019-04-14T19:32:26.204Z,6.86
2019-04-14T19:34:54.603Z,6.86
2019-04-14T19:37:22.911Z,6.81
2019-04-14T19:39:51.574Z,6.80
2019-04-14T19:42:20.147Z,6.75
2019-04-14T19:44:48.741Z,6.74
2019-04-14T19:47:17.038Z,6.71
2019-04-14T19:49:45.339Z,6.74
2019-04-14T19:52:13.642Z,6.76
2019-04-14T19:54:42.261Z,6.84
2019-04-14T19:57:10.835Z,6.88
2019-04-14T19:59:39.163Z,6.88
2019-04-14T20:02:07.795Z,6.83
2019-04-14T20:04:36.094Z,6.79
2019-04-14T20:07:04.735Z,6.74
2019-04-14T20:09:33.063Z,6.78
2019-04-14T20:12:01.441Z,6.79
2019-04-14T20:14:29.768Z,6.83
2019-04-14T20:17:00.009Z,6.86
2019-04-14T20:19:30.225Z,6.82
2019-04-14T20:22:15.458Z,6.83
2019-04-14T20:24:54.533Z,6.88
2019-04-14T20:27:30.039Z,6.91
2019-04-14T20:29:59.983Z,6.92
2019-04-14T20:32:29.928Z,6.91
2019-04-14T20:34:58.246Z,6.86
2019-04-14T20:37:26.887Z,6.86
2019-04-14T20:39:55.564Z,6.86
2019-04-14T20:42:23.966Z,6.82
2019-04-14T20:44:52.349Z,6.79
2019-04-14T20:47:20.893Z,6.74
2019-04-14T20:49:49.222Z,6.72
2019-04-14T20:52:17.554Z,6.77
2019-04-14T20:54:45.868Z,6.76
2019-04-14T20:57:14.236Z,6.77
2019-04-14T20:59:42.550Z,6.78
2019-04-14T21:02:24.207Z,6.81
2019-04-14T21:04:56.672Z,6.80
2019-04-14T21:07:42.897Z,6.76
2019-04-14T21:10:15.255Z,6.69
2019-04-14T21:12:51.131Z,6.70
2019-04-14T21:15:32.969Z,6.70
2019-04-14T21:18:17.958Z,6.70
2019-04-14T21:21:05.859Z,6.72
2019-04-14T21:23:38.977Z,6.67
2019-04-14T21:26:08.950Z,6.64
2019-04-14T21:28:44.604Z,6.63
2019-04-14T21:31:20.240Z,6.61
2019-04-14T21:33:52.885Z,6.62
2019-04-14T21:36:22.890Z,6.66
2019-04-14T21:38:55.647Z,6.65
2019-04-14T21:41:25.665Z,6.67
2019-04-14T21:43:54.281Z,6.63
2019-04-14T21:46:22.644Z,6.63
2019-04-14T21:48:50.946Z,6.64
2019-04-14T21:51:19.264Z,6.62
2019-04-14T21:53:48.416Z,6.63
2019-04-14T21:56:17.083Z,6.61
2019-04-14T21:58:52.915Z,6.60
2019-04-14T22:01:42.147Z,6.61
2019-04-14T22:04:28.474Z,6.60
2019-04-14T22:07:01.375Z,6.60
2019-04-14T22:09:31.397Z,6.59
2019-04-14T22:12:00.873Z,6.62
2019-04-14T22:14:29.189Z,6.60
2019-04-14T22:16:57.486Z,6.51
2019-04-14T22:19:25.958Z,6.50
2019-04-14T22:21:54.256Z,6.48
2019-04-14T22:24:22.571Z,6.47
2019-04-14T22:26:50.881Z,6.51
2019-04-14T22:29:19.215Z,6.56
2019-04-14T22:31:47.649Z,6.55
2019-04-14T22:34:15.970Z,6.53
2019-04-14T22:36:44.277Z,6.51
2019-04-14T22:39:16.613Z,6.51
2019-04-14T22:41:44.932Z,6.48
2019-04-14T22:44:13.312Z,6.38
2019-04-14T22:46:41.599Z,6.36
2019-04-14T22:49:09.931Z,6.35
2019-04-14T22:51:39.155Z,6.37
2019-04-14T22:54:07.476Z,6.34
2019-04-14T22:56:39.584Z,6.34
2019-04-14T22:59:05.802Z,6.33
2019-04-14T23:01:35.731Z,6.33
2019-04-14T23:04:22.248Z,6.33
2019-04-14T23:06:57.679Z,6.33
2019-04-14T23:09:27.907Z,6.36
2019-04-14T23:12:12.729Z,6.36
2019-04-14T23:14:42.971Z,6.38
2019-04-14T23:17:15.847Z,6.39
2019-04-14T23:20:01.030Z,6.38
2019-04-14T23:22:42.881Z,6.32
2019-04-14T23:25:11.309Z,6.27
2019-04-14T23:27:39.980Z,6.26
2019-04-14T23:30:09.078Z,6.26
2019-04-14T23:32:37.502Z,6.32
2019-04-14T23:35:07.455Z,6.35
2019-04-14T23:37:36.043Z,6.36
2019-04-14T23:40:06.928Z,6.38
2019-04-14T23:42:35.576Z,6.42
2019-04-14T23:45:06.035Z,6.47
2019-04-14T23:47:34.329Z,6.46
2019-04-14T23:50:02.897Z,6.47
2019-04-14T23:52:31.536Z,6.52
2019-04-14T23:54:59.848Z,6.55
2019-04-14T23:57:28.124Z,6.57
2019-04-14T23:59:56.442Z,6.61
